Time;durP1;ratioP1;P1;durP2;ratioP2;P2;SDS_P1;SDS_P2;PMS_P1;PMS_P2;Temp;Humidity;BMP_temperature;BMP_pressure;BME280_temperature;BME280_humidity;BME280_pressure;Samples;Min_cycle;Max_cycle;Signal;HPM_P1;HPM_P2
2021/01/21 00:01:40;;;;;;;;;;;2.40;99.90;;;-0.05;78.12;94522.44;10398944;28;1427;-87
2021/01/21 00:06:45;;;;;;;;;;;1.10;99.90;;;-0.07;77.79;94524.47;10419284;28;1930;-87
2021/01/21 00:11:55;;;;;;;;;;;3.40;99.90;;;-0.11;78.76;94502.25;10399811;28;1398;-87
2021/01/21 00:16:58;;;;;;;;;;;1.10;99.90;;;0.03;77.53;94492.16;10400702;28;2056;-86
2021/01/21 00:22:03;;;;;;;;;;;1.60;99.90;;;0.27;75.51;94479.59;10403501;28;1662;-87
2021/01/21 00:27:06;;;;;;;;;;;1.20;99.90;;;0.35;74.71;94475.75;10421767;23;3569;-89
2021/01/21 00:32:08;;;;;;;;;;;1.40;99.90;;;0.46;74.55;94466.94;10417345;28;2120;-88
2021/01/21 00:37:15;;;;;;;;;;;2.50;99.90;;;0.54;72.47;94462.03;10461584;28;1015;-90
2021/01/21 00:42:18;;;;;;;;;;;1.50;99.90;;;0.70;72.04;94462.22;10459816;28;2120;-89
2021/01/21 00:47:22;;;;;;;;;;;2.30;99.90;;;1.11;69.66;94446.91;10552436;23;3412;-90
2021/01/21 00:52:26;;;;;;;;;;;1.80;99.90;;;1.42;67.66;94440.91;10442905;28;1746;-87
2021/01/21 00:57:28;;;;;;;;;;;2.20;99.90;;;1.62;67.41;94453.53;10442620;28;1276;-89
2021/01/21 01:02:31;;;;;;;;;;;2.40;98.50;;;1.67;67.41;94437.72;10454643;28;1393;-88
2021/01/21 01:07:34;;;;;;;;;;;3.50;98.20;;;1.60;67.34;94437.91;10409184;28;1910;-89
2021/01/21 01:12:37;;;;;;;;;;;3.40;97.60;;;1.43;68.39;94450.44;10442821;28;1394;-88
2021/01/21 01:17:39;;;;;;;;;;;4.10;98.20;;;1.25;69.08;94445.47;10460039;28;1435;-90
2021/01/21 01:22:42;;;;;;;;;;;2.50;97.60;;;1.23;67.85;94424.53;10445888;28;1233;-91
2021/01/21 01:27:44;;;;;;;;;;;2.30;97.30;;;1.32;68.49;94411.66;10434951;28;2034;-86
2021/01/21 01:32:47;;;;;;;;;;;3.40;97.40;;;1.21;69.13;94407.28;10424180;28;1709;-87
2021/01/21 01:37:50;;;;;;;;;;;4.20;98.30;;;1.14;69.25;94402.19;10428311;28;1677;-88
2021/01/21 01:42:52;;;;;;;;;;;2.20;97.20;;;1.14;68.87;94401.38;10433196;28;1788;-89
2021/01/21 01:47:55;;;;;;;;;;;2.70;97.30;;;1.10;69.15;94411.69;10388268;28;1973;-89
2021/01/21 01:52:59;;;;;;;;;;;3.50;97.90;;;1.13;69.84;94424.41;10419958;28;2097;-87
2021/01/21 01:58:04;;;;;;;;;;;2.30;97.90;;;1.18;69.55;94439.56;10392149;28;2079;-89
2021/01/21 02:03:06;;;;;;;;;;;2.20;97.70;;;1.21;69.62;94450.47;10427413;28;1925;-88
2021/01/21 02:08:09;;;;;;;;;;;2.30;97.70;;;1.22;70.27;94445.97;10442375;28;1894;-88
2021/01/21 02:13:12;;;;;;;;;;;2.20;98.30;;;1.20;70.46;94458.63;10417658;28;2044;-89
2021/01/21 02:18:14;;;;;;;;;;;3.40;99.30;;;1.26;69.91;94458.44;10421028;28;2087;-90
2021/01/21 02:23:16;;;;;;;;;;;3.60;99.20;;;1.36;69.27;94449.84;10427772;28;2165;-87
2021/01/21 02:28:18;;;;;;;;;;;2.20;98.20;;;1.35;70.38;94448.22;10403896;28;2019;-88
2021/01/21 02:33:21;;;;;;;;;;;3.80;99.20;;;1.35;69.84;94442.94;10428130;28;1278;-89
2021/01/21 02:38:24;;;;;;;;;;;4.20;99.50;;;1.28;70.99;94444.97;10416240;28;1659;-88
2021/01/21 02:43:35;;;;;;;;;;;2.30;99.20;;;1.20;70.53;94432.16;10411960;28;2037;-88
2021/01/21 02:48:38;;;;;;;;;;;2.60;98.90;;;1.24;70.82;94423.50;10405693;28;2147;-90
2021/01/21 02:53:40;;;;;;;;;;;2.30;99.20;;;1.35;70.57;94414.63;10461203;28;1231;-90
2021/01/21 02:58:43;;;;;;;;;;;2.30;99.40;;;1.39;70.92;94401.66;10415771;28;2241;-87
2021/01/21 03:03:46;;;;;;;;;;;2.40;99.40;;;1.43;70.17;94409.91;10421543;28;1907;-87
2021/01/21 03:08:48;;;;;;;;;;;3.00;99.00;;;1.39;70.77;94412.25;10412164;28;2213;-88
2021/01/21 03:13:52;;;;;;;;;;;3.30;99.10;;;1.38;70.26;94417.81;10419257;28;1742;-88
2021/01/21 03:18:54;;;;;;;;;;;4.30;99.80;;;1.36;70.50;94420.72;10412717;28;1847;-88
2021/01/21 03:23:57;;;;;;;;;;;3.80;99.40;;;1.33;70.72;94421.19;10420099;28;2084;-88
2021/01/21 03:28:59;;;;;;;;;;;2.40;99.00;;;1.29;70.86;94423.56;10400534;28;2026;-88
2021/01/21 03:34:03;;;;;;;;;;;4.40;99.90;;;1.33;71.09;94427.28;10422877;28;1336;-87
2021/01/21 03:39:06;;;;;;;;;;;3.80;99.90;;;1.32;71.71;94436.28;10421665;28;1804;-87
2021/01/21 03:44:08;;;;;;;;;;;3.60;99.90;;;1.39;70.67;94433.44;10396778;28;2016;-88
2021/01/21 03:49:11;;;;;;;;;;;2.40;99.40;;;1.35;71.77;94429.69;10394208;28;1966;-88
2021/01/21 03:54:14;;;;;;;;;;;2.40;99.80;;;1.33;71.67;94411.41;10417541;28;1809;-85
2021/01/21 03:59:17;;;;;;;;;;;2.30;99.90;;;1.34;71.56;94434.19;10403522;28;2141;-87
2021/01/21 04:04:19;;;;;;;;;;;2.30;99.90;;;1.37;72.18;94432.88;10412196;28;2139;-87
2021/01/21 04:09:22;;;;;;;;;;;3.00;99.90;;;1.33;72.61;94451.09;10408273;28;2282;-89
2021/01/21 04:14:24;;;;;;;;;;;2.30;99.90;;;1.22;72.62;94443.31;10403008;28;1223;-88
2021/01/21 04:19:26;;;;;;;;;;;2.30;99.90;;;1.17;73.37;94448.56;10384604;28;1411;-89
2021/01/21 04:24:29;;;;;;;;;;;2.20;99.90;;;1.08;73.46;94435.75;10401897;28;1273;-88
2021/01/21 04:29:31;;;;;;;;;;;2.20;99.90;;;0.98;74.04;94429.53;10415035;28;1914;-88
2021/01/21 04:34:33;;;;;;;;;;;2.10;99.90;;;0.89;74.92;94426.53;10411266;28;1358;-85
2021/01/21 04:39:36;;;;;;;;;;;2.90;99.90;;;0.94;75.04;94431.88;10408362;28;1351;-88
2021/01/21 04:44:39;;;;;;;;;;;3.50;99.90;;;0.92;75.15;94420.75;10405692;28;1918;-88
2021/01/21 04:49:41;;;;;;;;;;;2.00;99.90;;;0.94;75.20;94425.78;10405280;28;2054;-88
2021/01/21 04:54:43;;;;;;;;;;;2.00;99.90;;;0.88;75.31;94422.25;10420527;28;1579;-89
2021/01/21 04:59:46;;;;;;;;;;;3.80;99.90;;;0.81;75.90;94427.75;10402505;28;2058;-87
2021/01/21 05:04:48;;;;;;;;;;;2.00;99.90;;;0.73;76.16;94448.53;10397786;28;1898;-87
2021/01/21 05:09:50;;;;;;;;;;;1.90;99.90;;;0.60;76.53;94439.09;10400592;28;1836;-88
2021/01/21 05:14:53;;;;;;;;;;;1.80;99.90;;;0.56;76.38;94437.19;10429579;28;1948;-90
2021/01/21 05:19:55;;;;;;;;;;;1.70;99.90;;;0.58;76.89;94440.41;10425237;28;1641;-87
2021/01/21 05:24:57;;;;;;;;;;;1.60;99.90;;;0.67;77.03;94431.00;10419022;28;1887;-91
2021/01/21 05:29:59;;;;;;;;;;;1.70;99.90;;;0.78;77.40;94430.88;10424872;28;1663;-89
2021/01/21 05:35:05;;;;;;;;;;;1.70;99.90;;;0.94;76.61;94434.50;10423325;28;1923;-89
2021/01/21 05:40:07;;;;;;;;;;;3.90;99.90;;;1.04;76.72;94436.50;10409407;28;2103;-88
2021/01/21 05:45:09;;;;;;;;;;;2.00;99.90;;;1.18;76.14;94437.72;10403659;28;1887;-86
2021/01/21 05:50:12;;;;;;;;;;;4.00;99.90;;;1.31;75.77;94437.31;10421704;28;2167;-89
2021/01/21 05:55:14;;;;;;;;;;;2.70;99.90;;;1.44;75.78;94438.78;10408651;28;2155;-89
2021/01/21 06:00:16;;;;;;;;;;;4.00;99.90;;;1.52;75.76;94443.63;10407503;28;1304;-88
2021/01/21 06:05:20;;;;;;;;;;;3.80;99.90;;;1.60;75.92;94437.91;10420723;28;2114;-88
2021/01/21 06:10:22;;;;;;;;;;;3.60;99.90;;;1.63;75.93;94445.34;10437088;28;1493;-89
2021/01/21 06:15:24;;;;;;;;;;;2.60;99.90;;;1.66;75.88;94440.63;10435832;28;2107;-89
2021/01/21 06:20:27;;;;;;;;;;;3.40;99.90;;;1.79;75.47;94434.91;10437704;28;2163;-90
2021/01/21 06:25:29;;;;;;;;;;;2.80;99.90;;;1.90;75.16;94437.38;10439253;28;1891;-90
2021/01/21 06:30:33;;;;;;;;;;;4.00;99.90;;;1.97;75.27;94436.38;10431548;28;2274;-88
2021/01/21 06:35:35;;;;;;;;;;;4.80;99.90;;;2.03;75.37;94438.81;10436495;28;1925;-88
2021/01/21 06:40:38;;;;;;;;;;;3.00;99.90;;;1.99;75.38;94427.13;10447000;28;2092;-87
2021/01/21 06:45:40;;;;;;;;;;;4.90;99.90;;;2.08;73.09;94438.06;10416272;28;1887;-88
2021/01/21 06:50:42;;;;;;;;;;;3.10;99.90;;;2.14;72.36;94442.34;10440095;28;2237;-87
2021/01/21 06:55:44;;;;;;;;;;;3.10;99.90;;;2.15;70.47;94444.72;10433437;28;2102;-89
2021/01/21 07:00:48;;;;;;;;;;;3.10;99.90;;;2.23;71.42;94437.38;10460508;28;2068;-86
2021/01/21 07:05:50;;;;;;;;;;;4.40;99.90;;;2.50;68.72;94435.44;10454761;28;2041;-91
2021/01/21 07:10:55;;;;;;;;;;;3.30;99.90;;;2.69;66.50;94439.28;10443299;28;1330;-91
2021/01/21 07:15:58;;;;;;;;;;;3.90;99.30;;;3.00;64.84;94436.78;10444736;28;1697;-91
2021/01/21 07:21:17;;;;;;;;;;;3.80;97.30;;;3.29;63.92;94436.38;10445852;28;1936;-86
2021/01/21 07:26:22;;;;;;;;;;;5.00;96.80;;;3.49;63.94;94434.56;10441842;28;1999;-87
2021/01/21 07:31:35;;;;;;;;;;;4.30;95.40;;;3.92;61.77;94435.19;10428379;28;2031;-86
2021/01/21 07:36:39;;;;;;;;;;;4.60;93.50;;;4.15;60.65;94433.88;10441629;28;1856;-87
2021/01/21 07:41:47;;;;;;;;;;;6.10;93.10;;;4.46;59.43;94428.56;10413687;28;2048;-85
2021/01/21 07:46:52;;;;;;;;;;;6.20;90.70;;;4.77;58.55;94435.44;10411752;28;1979;-87
2021/01/21 07:51:57;;;;;;;;;;;5.50;89.20;;;5.05;57.26;94443.88;10399055;28;1816;-86
2021/01/21 07:57:07;;;;;;;;;;;5.70;87.10;;;5.27;57.02;94441.66;10424489;28;1653;-87
2021/01/21 08:02:11;;;;;;;;;;;6.00;86.40;;;5.63;55.55;94441.50;10428792;28;1809;-88
2021/01/21 08:07:17;;;;;;;;;;;6.30;85.00;;;5.92;53.64;94445.09;10444641;28;2084;-87
2021/01/21 08:12:19;;;;;;;;;;;6.60;82.90;;;6.22;52.47;94444.06;10453532;28;1367;-86
2021/01/21 08:17:21;;;;;;;;;;;8.10;81.80;;;6.46;51.18;94433.47;10446844;28;1300;-88
2021/01/21 08:22:25;;;;;;;;;;;7.20;79.50;;;6.65;49.72;94422.91;10405735;28;1418;-86
2021/01/21 08:27:27;;;;;;;;;;;7.40;78.10;;;6.71;49.95;94412.97;10398237;28;1895;-85
2021/01/21 08:32:32;;;;;;;;;;;8.50;77.20;;;6.81;49.53;94396.84;10430925;28;1826;-86
2021/01/21 08:37:35;;;;;;;;;;;8.90;76.20;;;6.89;50.49;94409.59;10406565;28;2013;-87
2021/01/21 08:42:37;;;;;;;;;;;8.20;75.80;;;7.10;48.45;94412.03;10414226;28;2026;-85
2021/01/21 08:47:41;;;;;;;;;;;7.90;74.60;;;7.31;48.63;94400.00;10408254;28;2055;-85
2021/01/21 08:52:52;;;;;;;;;;;8.10;74.10;;;7.51;46.58;94394.44;10394341;28;1910;-85
2021/01/21 08:57:55;;;;;;;;;;;9.40;72.70;;;7.52;47.78;94396.00;10395957;28;1849;-86
2021/01/21 09:14:13;;;;;;;;;;;8.80;70.40;;;7.84;45.00;94395.31;10428925;28;2100;-87
2021/01/21 09:19:19;;;;;;;;;;;10.70;69.90;;;7.90;44.77;94395.25;10435785;28;2095;-85
2021/01/21 09:24:25;;;;;;;;;;;8.80;68.20;;;8.12;43.80;94395.41;10425269;28;2186;-88
2021/01/21 09:29:31;;;;;;;;;;;8.90;67.80;;;8.18;44.60;94401.50;10441354;28;1955;-86
2021/01/21 09:34:51;;;;;;;;;;;10.20;68.50;;;8.21;44.25;94409.75;10414236;28;1721;-87
2021/01/21 09:40:04;;;;;;;;;;;9.20;67.40;;;8.49;42.81;94416.03;10407668;28;2014;-84
2021/01/21 09:45:08;;;;;;;;;;;10.50;66.80;;;8.70;43.13;94427.19;10424208;28;2266;-86
2021/01/21 09:50:11;;;;;;;;;;;9.60;66.10;;;9.00;41.58;94431.22;10394162;28;1897;-84
2021/01/21 09:55:13;;;;;;;;;;;11.20;65.60;;;9.32;40.90;94416.13;10417372;28;2011;-86
2021/01/21 10:00:16;;;;;;;;;;;10.10;63.70;;;9.66;39.82;94424.53;10408377;28;2319;-87
2021/01/21 10:05:20;;;;;;;;;;;10.40;62.40;;;9.96;38.79;94420.41;10417609;28;1999;-87
2021/01/21 10:10:23;;;;;;;;;;;10.70;61.00;;;10.07;37.65;94421.00;10409901;28;2158;-84
2021/01/21 10:15:26;;;;;;;;;;;10.90;60.10;;;10.13;38.62;94424.38;10429010;28;2064;-82
2021/01/21 10:20:28;;;;;;;;;;;11.10;60.20;;;10.16;38.66;94421.84;10407298;28;2181;-86
2021/01/21 10:25:30;;;;;;;;;;;11.10;60.20;;;10.06;38.77;94421.31;10425316;28;2020;-86
2021/01/21 10:30:35;;;;;;;;;;;11.10;59.60;;;10.03;37.89;94428.84;10452667;28;2095;-87
2021/01/21 10:35:37;;;;;;;;;;;11.00;59.30;;;10.12;37.89;94437.00;10448922;28;2575;-86
2021/01/21 10:40:39;;;;;;;;;;;11.00;59.00;;;10.08;37.19;94445.94;10434609;28;1919;-84
2021/01/21 10:45:42;;;;;;;;;;;11.00;58.60;;;10.07;37.76;94437.09;10426349;28;2557;-84
2021/01/21 10:50:44;;;;;;;;;;;11.00;58.70;;;10.03;37.64;94444.16;10433165;28;1375;-84
2021/01/21 10:55:48;;;;;;;;;;;11.00;58.30;;;10.03;37.50;94436.91;10434897;28;1973;-84
2021/01/21 11:00:50;;;;;;;;;;;11.00;58.40;;;10.10;37.58;94428.44;10430055;28;2039;-83
2021/01/21 11:05:52;;;;;;;;;;;11.10;58.40;;;10.33;35.92;94436.56;10447701;28;2111;-85
2021/01/21 11:10:55;;;;;;;;;;;11.20;57.40;;;10.50;36.22;94426.75;10431333;28;1646;-84
2021/01/21 11:15:57;;;;;;;;;;;11.30;57.50;;;10.51;36.40;94422.94;10442064;28;1284;-85
2021/01/21 11:20:59;;;;;;;;;;;11.40;57.30;;;10.68;35.55;94406.13;10405071;28;2018;-82
2021/01/21 11:26:03;;;;;;;;;;;11.50;56.60;;;10.66;35.99;94392.22;10430525;28;2001;-83
2021/01/21 11:31:05;;;;;;;;;;;11.60;57.00;;;10.63;36.11;94397.44;10431717;28;2113;-83
2021/01/21 11:36:08;;;;;;;;;;;11.60;56.60;;;10.67;36.65;94395.69;10441382;28;1985;-85
2021/01/21 11:41:09;;;;;;;;;;;11.60;56.80;;;10.63;36.06;94387.47;10434415;28;2278;-84
2021/01/21 11:46:11;;;;;;;;;;;11.70;56.40;;;10.71;35.94;94380.56;10438648;28;2123;-84
2021/01/21 11:51:14;;;;;;;;;;;11.60;56.40;;;11.05;35.69;94369.16;10449367;28;2151;-83
2021/01/21 11:56:16;;;;;;;;;;;11.80;56.20;;;11.48;33.99;94357.75;10449221;28;1646;-83
2021/01/21 12:01:28;;;;;;;;;;;12.30;55.00;;;11.60;33.96;94353.34;10419945;23;1867;-83
2021/01/21 12:06:35;;;;;;;;;;;12.50;54.00;;;11.52;35.61;94353.34;10406285;28;2141;-85
2021/01/21 12:11:37;;;;;;;;;;;12.60;54.70;;;11.67;34.75;94350.19;10366500;28;2139;-84
2021/01/21 12:16:39;;;;;;;;;;;12.60;54.40;;;12.32;32.63;94335.00;10388828;28;1977;-84
2021/01/21 12:21:42;;;;;;;;;;;12.90;52.90;;;12.70;32.49;94343.19;10388677;28;2159;-85
2021/01/21 12:26:44;;;;;;;;;;;13.40;52.80;;;12.67;32.49;94333.84;10382501;28;1965;-84
2021/01/21 12:31:54;;;;;;;;;;;13.60;52.70;;;12.75;31.78;94321.44;10372986;28;2164;-85
2021/01/21 12:36:59;;;;;;;;;;;13.60;51.90;;;12.34;33.01;94330.91;10389889;28;2081;-85
2021/01/21 12:42:04;;;;;;;;;;;13.50;52.40;;;12.05;34.50;94310.00;10374598;28;1844;-85
2021/01/21 12:47:07;;;;;;;;;;;13.20;52.90;;;11.97;34.92;94324.28;10367703;28;1963;-83
2021/01/21 12:52:12;;;;;;;;;;;13.00;53.30;;;12.07;33.48;94315.06;10370956;28;2120;-83
2021/01/21 12:57:14;;;;;;;;;;;13.00;53.20;;;12.32;33.33;94319.63;10382600;28;1349;-85
2021/01/21 13:02:18;;;;;;;;;;;13.10;53.40;;;12.51;32.80;94326.56;10398015;28;1823;-84
2021/01/21 13:07:23;;;;;;;;;;;13.30;52.20;;;12.82;32.79;94329.81;10399521;28;1891;-84
2021/01/21 13:12:39;;;;;;;;;;;13.60;52.50;;;12.95;32.16;94334.22;10386150;28;1367;-86
2021/01/21 13:17:41;;;;;;;;;;;13.80;51.40;;;13.17;33.56;94324.31;10390518;28;2061;-84
2021/01/21 13:22:43;;;;;;;;;;;14.00;52.30;;;13.37;32.29;94334.38;10393465;28;1930;-85
2021/01/21 13:27:49;;;;;;;;;;;14.20;51.60;;;13.12;33.64;94348.75;10394085;28;2091;-83
2021/01/21 13:32:51;;;;;;;;;;;14.20;51.80;;;11.26;38.37;94367.53;10421116;28;2168;-82
2021/01/21 13:37:53;;;;;;;;;;;13.10;54.50;;;10.26;40.17;94378.69;10406909;28;1919;-88
2021/01/21 13:42:57;;;;;;;;;;;11.80;56.80;;;9.39;42.39;94381.66;10368313;28;1883;-83
2021/01/21 13:47:59;;;;;;;;;;;10.80;59.20;;;9.23;43.85;94383.09;10381070;28;1894;-84
2021/01/21 13:53:03;;;;;;;;;;;10.40;61.00;;;9.12;43.84;94391.31;10371601;28;2140;-84
2021/01/21 13:58:07;;;;;;;;;;;10.30;61.70;;;9.06;44.56;94395.19;10368692;28;1917;-79
2021/01/21 14:03:12;;;;;;;;;;;10.10;62.50;;;9.02;44.33;94388.81;10390814;28;1974;-83
2021/01/21 14:08:21;;;;;;;;;;;10.10;62.60;;;9.03;44.97;94390.41;10465271;23;3590;-83
2021/01/21 14:13:30;;;;;;;;;;;10.10;63.10;;;8.97;44.72;94386.25;10404512;28;1438;-84
2021/01/21 14:18:37;;;;;;;;;;;10.10;63.00;;;9.01;44.51;94392.59;10402488;28;2083;-82
2021/01/21 14:23:45;;;;;;;;;;;10.00;62.80;;;8.96;45.10;94389.22;10404566;28;2002;-83
2021/01/21 14:28:56;;;;;;;;;;;10.10;63.30;;;8.94;44.24;94378.78;10397763;28;2165;-85
2021/01/21 14:34:08;;;;;;;;;;;10.10;62.80;;;8.87;44.75;94373.81;10391557;28;2045;-83
2021/01/21 14:45:05;;;;;;;;;;;9.90;63.20;;;8.70;45.20;94367.44;10389315;28;1896;-84
2021/01/21 14:55:39;;;;;;;;;;;9.80;63.40;;;8.61;46.00;94359.31;10407892;28;1791;-83
2021/01/21 15:00:43;;;;;;;;;;;9.80;64.00;;;8.56;45.95;94354.81;10397637;28;1999;-82
2021/01/21 15:05:49;;;;;;;;;;;10.80;64.60;;;8.40;46.78;94350.84;10403212;28;2097;-84
2021/01/21 15:11:00;;;;;;;;;;;9.60;64.60;;;8.29;46.56;94350.19;10388349;28;1990;-84
2021/01/21 15:16:08;;;;;;;;;;;11.00;65.40;;;8.28;47.05;94347.81;10366480;28;1599;-85
2021/01/21 15:21:11;;;;;;;;;;;9.50;65.00;;;8.10;47.25;94331.50;10391141;28;2340;-85
2021/01/21 15:26:16;;;;;;;;;;;9.30;65.60;;;8.01;48.79;94345.81;10373898;28;2482;-87
2021/01/21 15:31:23;;;;;;;;;;;9.70;66.40;;;7.89;48.91;94332.09;10377571;28;2071;-86
2021/01/21 15:41:56;;;;;;;;;;;9.00;66.50;;;7.76;49.16;94320.25;10368243;28;1618;-86
2021/01/21 15:47:07;;;;;;;;;;;10.10;67.50;;;7.62;49.28;94335.44;10383021;28;1955;-84
2021/01/21 15:52:13;;;;;;;;;;;9.60;67.70;;;7.45;50.58;94323.38;10374381;28;2107;-81
2021/01/21 15:57:15;;;;;;;;;;;8.70;68.60;;;7.35;51.71;94331.53;10380862;28;1935;-84
2021/01/21 16:02:23;;;;;;;;;;;8.50;69.40;;;7.23;51.81;94328.50;10381677;28;1671;-85
2021/01/21 16:07:25;;;;;;;;;;;8.40;69.60;;;7.10;53.81;94323.84;10387260;28;2089;-86
2021/01/21 16:12:28;;;;;;;;;;;9.10;71.40;;;6.96;53.85;94321.88;10386067;28;1778;-80
2021/01/21 16:17:30;;;;;;;;;;;9.70;72.10;;;6.88;54.01;94327.06;10380400;28;1882;-86
2021/01/21 16:22:36;;;;;;;;;;;8.10;71.80;;;6.88;53.55;94333.22;10388659;28;1974;-86
2021/01/21 16:27:40;;;;;;;;;;;8.40;72.20;;;6.85;54.30;94341.78;10385150;28;2084;-83
2021/01/21 16:32:50;;;;;;;;;;;7.90;72.10;;;6.88;54.32;94351.13;10377025;28;1955;-84
2021/01/21 16:38:15;;;;;;;;;;;7.90;72.10;;;6.69;55.16;94340.38;10358738;28;2069;-84
2021/01/21 16:43:26;;;;;;;;;;;7.80;72.80;;;6.59;56.06;94335.13;10383533;28;1927;-83
2021/01/21 16:48:29;;;;;;;;;;;7.70;73.60;;;6.47;56.09;94330.16;10388832;28;2096;-83
2021/01/21 16:53:32;;;;;;;;;;;8.70;74.70;;;6.30;57.26;94324.47;10401316;28;2045;-84
2021/01/21 16:58:35;;;;;;;;;;;7.50;74.80;;;6.23;57.58;94324.78;10395620;28;2100;-85
2021/01/21 17:03:37;;;;;;;;;;;7.40;75.60;;;6.13;59.05;94316.91;10389845;28;2044;-84
2021/01/21 17:08:39;;;;;;;;;;;7.30;76.50;;;6.14;58.26;94321.16;10405778;28;1963;-86
2021/01/21 17:13:41;;;;;;;;;;;7.20;76.40;;;6.06;58.90;94317.22;10399089;28;1999;-82
2021/01/21 17:18:43;;;;;;;;;;;7.20;76.70;;;5.91;59.47;94326.13;10405252;28;1971;-84
2021/01/21 17:23:45;;;;;;;;;;;7.10;77.30;;;5.81;59.62;94325.41;10408112;28;1848;-85
2021/01/21 17:28:47;;;;;;;;;;;7.00;77.70;;;5.78;60.54;94337.41;10399904;28;1907;-85
2021/01/21 17:33:49;;;;;;;;;;;6.90;78.50;;;5.73;60.18;94329.47;10378396;28;1734;-85
2021/01/21 17:38:51;;;;;;;;;;;6.90;78.40;;;5.66;60.24;94326.31;10394028;28;1316;-83
2021/01/21 17:43:53;;;;;;;;;;;6.80;78.40;;;5.67;59.83;94317.25;10403438;28;1598;-82
2021/01/21 17:48:54;;;;;;;;;;;6.80;78.40;;;5.58;60.28;94324.22;10388561;28;1910;-85
2021/01/21 17:53:56;;;;;;;;;;;7.10;79.10;;;5.55;61.00;94332.78;10400781;28;1827;-84
2021/01/21 17:58:58;;;;;;;;;;;6.80;79.30;;;5.65;60.33;94320.19;10414372;28;1934;-84
2021/01/21 18:04:00;;;;;;;;;;;7.40;79.60;;;5.61;60.78;94315.69;10387975;28;2003;-86
2021/01/21 18:09:02;;;;;;;;;;;6.80;79.50;;;5.53;61.20;94313.59;10400791;28;1933;-84
2021/01/21 18:14:08;;;;;;;;;;;6.70;79.80;;;5.46;61.37;94313.13;10416880;28;1655;-84
2021/01/21 18:19:09;;;;;;;;;;;6.60;80.00;;;5.39;61.66;94308.09;10410680;28;2061;-84
2021/01/21 18:24:11;;;;;;;;;;;6.60;80.10;;;5.39;61.89;94302.78;10405376;28;2004;-86
2021/01/21 18:29:13;;;;;;;;;;;6.90;80.70;;;5.38;61.34;94299.31;10386502;28;1891;-82
2021/01/21 18:34:26;;;;;;;;;;;6.40;80.20;;;5.34;61.55;94300.97;10436799;28;1259;-83
2021/01/21 18:39:42;;;;;;;;;;;6.40;80.40;;;5.37;61.99;94295.06;10423160;28;2011;-82
2021/01/21 18:44:45;;;;;;;;;;;7.00;81.20;;;5.50;61.23;94292.84;10425696;28;1274;-86
2021/01/21 18:49:59;;;;;;;;;;;7.70;81.30;;;5.50;61.44;94282.97;10429737;28;1967;-85
2021/01/21 18:55:07;;;;;;;;;;;6.50;80.50;;;5.45;60.98;94285.69;10404779;28;1996;-84
2021/01/21 19:00:13;;;;;;;;;;;6.50;80.20;;;5.43;60.70;94285.97;10395384;28;1928;-84
2021/01/21 19:05:14;;;;;;;;;;;6.50;80.10;;;5.33;61.68;94282.56;10383044;28;1953;-83
2021/01/21 19:10:16;;;;;;;;;;;6.70;80.60;;;5.27;62.15;94278.34;10411572;28;1983;-83
2021/01/21 19:15:19;;;;;;;;;;;6.40;81.20;;;5.34;61.30;94279.63;10431661;28;1632;-83
2021/01/21 19:20:21;;;;;;;;;;;6.40;81.00;;;5.26;62.64;94271.41;10389704;28;2218;-86
2021/01/21 19:25:22;;;;;;;;;;;6.40;81.40;;;5.24;62.53;94262.91;10356556;28;2001;-81
2021/01/21 19:30:24;;;;;;;;;;;6.30;81.40;;;5.17;62.36;94263.22;10378882;28;1991;-83
2021/01/21 19:35:26;;;;;;;;;;;6.30;81.40;;;5.14;62.48;94250.44;10394645;28;1614;-86
2021/01/21 19:40:31;;;;;;;;;;;6.20;81.80;;;5.09;62.94;94250.47;10409023;28;1680;-84
2021/01/21 19:45:33;;;;;;;;;;;6.20;81.90;;;5.02;63.36;94253.44;10387970;28;1940;-84
2021/01/21 19:50:35;;;;;;;;;;;6.50;82.50;;;5.09;62.89;94239.81;10388510;28;1967;-86
2021/01/21 19:55:37;;;;;;;;;;;6.30;82.50;;;5.08;63.31;94243.56;10369579;28;1933;-84
2021/01/21 20:00:39;;;;;;;;;;;6.10;82.40;;;4.95;63.32;94233.53;10386084;28;1955;-85
2021/01/21 20:05:40;;;;;;;;;;;6.00;82.50;;;5.02;62.82;94228.69;10385000;28;1866;-86
2021/01/21 20:10:42;;;;;;;;;;;6.00;82.50;;;4.87;63.69;94225.03;10395240;28;2128;-84
2021/01/21 20:15:44;;;;;;;;;;;6.00;82.80;;;4.78;64.30;94216.06;10389782;28;1779;-84
2021/01/21 20:20:47;;;;;;;;;;;6.10;83.30;;;4.74;63.95;94215.00;10394281;28;1795;-87
2021/01/21 20:25:49;;;;;;;;;;;5.90;83.40;;;4.82;63.80;94209.09;10407310;28;1958;-84
2021/01/21 20:30:51;;;;;;;;;;;5.90;83.60;;;4.92;63.47;94199.47;10422443;28;1648;-84
2021/01/21 20:35:53;;;;;;;;;;;5.90;83.40;;;4.87;63.76;94185.09;10407850;28;1933;-84
2021/01/21 20:40:58;;;;;;;;;;;6.70;83.90;;;4.84;63.53;94174.22;10406604;28;2011;-84
2021/01/21 20:46:04;;;;;;;;;;;5.90;83.40;;;4.88;63.37;94157.41;10368132;28;1957;-85
2021/01/21 20:51:07;;;;;;;;;;;5.90;83.00;;;4.95;62.69;94143.00;10386023;28;1555;-87
2021/01/21 20:56:10;;;;;;;;;;;6.00;82.90;;;4.97;63.05;94130.22;10394699;28;1647;-87
2021/01/21 21:01:13;;;;;;;;;;;5.90;82.60;;;5.13;61.07;94115.69;10400937;28;1818;-83
2021/01/21 21:06:15;;;;;;;;;;;6.20;81.80;;;5.25;60.18;94117.97;10390919;28;1978;-84
2021/01/21 21:11:17;;;;;;;;;;;6.40;81.00;;;5.24;60.02;94103.88;10390338;28;2092;-84
2021/01/21 21:16:19;;;;;;;;;;;6.30;80.60;;;5.30;59.58;94091.28;10384053;28;1927;-85
2021/01/21 21:21:20;;;;;;;;;;;6.30;80.30;;;5.35;58.49;94073.41;10377603;28;1957;-86
2021/01/21 21:26:22;;;;;;;;;;;6.30;79.20;;;5.31;59.13;94061.69;10374905;28;2086;-84
2021/01/21 21:31:25;;;;;;;;;;;6.40;79.30;;;5.35;58.68;94057.41;10382172;28;1647;-85
2021/01/21 21:36:28;;;;;;;;;;;6.40;78.90;;;5.31;58.19;94048.38;10368667;28;1993;-85
2021/01/21 21:41:30;;;;;;;;;;;6.40;78.40;;;5.22;58.49;94041.31;10375322;28;1954;-86
2021/01/21 21:46:33;;;;;;;;;;;6.30;78.60;;;5.19;58.60;94026.66;10378685;28;2027;-85
2021/01/21 21:51:36;;;;;;;;;;;6.20;78.70;;;5.15;58.62;94020.28;10365285;28;2106;-86
2021/01/21 21:56:37;;;;;;;;;;;6.20;78.60;;;5.05;58.82;94023.88;10381824;28;1927;-85
2021/01/21 22:01:39;;;;;;;;;;;6.20;78.60;;;5.16;58.55;94011.25;10375915;28;2036;-84
2021/01/21 22:06:41;;;;;;;;;;;6.30;78.70;;;5.20;58.48;94014.13;10386012;28;2018;-83
2021/01/21 22:11:43;;;;;;;;;;;6.10;78.80;;;5.14;58.47;94008.84;10392850;28;1958;-83
2021/01/21 22:16:45;;;;;;;;;;;6.20;78.60;;;5.27;57.97;93996.72;10370289;28;1931;-84
2021/01/21 22:21:48;;;;;;;;;;;6.20;78.30;;;5.23;58.15;94002.94;10395113;28;1862;-83
2021/01/21 22:26:50;;;;;;;;;;;6.20;78.40;;;5.26;57.72;93987.16;10395797;28;2009;-81
2021/01/21 22:31:52;;;;;;;;;;;5.90;77.90;;;5.18;57.88;93982.47;10401544;28;1909;-81
2021/01/21 22:36:54;;;;;;;;;;;6.20;78.00;;;5.15;57.48;93967.03;10398307;28;1983;-84
2021/01/21 22:41:58;;;;;;;;;;;6.50;77.90;;;5.09;57.78;93958.31;10395160;28;2004;-82
2021/01/21 22:47:00;;;;;;;;;;;6.10;77.80;;;5.08;58.44;93945.28;10375106;28;1967;-83
2021/01/21 22:52:05;;;;;;;;;;;6.10;78.20;;;5.05;57.95;93929.88;10396844;28;1457;-84
2021/01/21 22:57:07;;;;;;;;;;;6.60;78.10;;;5.02;57.75;93919.78;10392710;28;1987;-82
2021/01/21 23:02:08;;;;;;;;;;;6.10;78.00;;;5.01;58.31;93918.97;10394549;28;1977;-83
2021/01/21 23:07:11;;;;;;;;;;;6.00;78.00;;;5.02;58.07;93909.13;10381237;28;1974;-82
2021/01/21 23:12:13;;;;;;;;;;;6.00;78.10;;;5.09;57.37;93909.56;10403266;28;1870;-82
2021/01/21 23:17:15;;;;;;;;;;;6.10;78.00;;;5.14;58.11;93906.84;10380066;28;1944;-83
2021/01/21 23:22:17;;;;;;;;;;;6.10;78.20;;;5.07;58.57;93917.06;10375731;28;2036;-81
2021/01/21 23:27:19;;;;;;;;;;;6.30;78.50;;;5.13;58.79;93919.38;10387847;28;1978;-83
2021/01/21 23:32:21;;;;;;;;;;;6.10;78.60;;;5.22;58.36;93930.22;10407962;28;1748;-82
2021/01/21 23:37:24;;;;;;;;;;;6.70;78.80;;;5.26;58.79;93917.88;10394017;28;2137;-82
2021/01/21 23:42:26;;;;;;;;;;;6.20;78.70;;;5.28;59.05;93907.75;10381868;28;1777;-83
2021/01/21 23:47:28;;;;;;;;;;;6.30;79.00;;;5.32;59.54;93914.09;10410218;28;1908;-83
2021/01/21 23:52:30;;;;;;;;;;;6.30;79.30;;;5.44;58.28;93905.69;10411352;28;1949;-87
2021/01/21 23:57:32;;;;;;;;;;;6.40;78.60;;;5.48;58.50;93919.25;10424220;28;1870;-87
